createdAt,value
2018-04-13T00:00:59.074Z,33.72
2018-04-13T00:02:04.764Z,32.78
2018-04-13T00:03:11.162Z,31.80
2018-04-13T00:04:18.709Z,31.10
2018-04-13T00:05:29.963Z,29.42
2018-04-13T00:06:37.823Z,28.25
2018-04-13T00:07:44.144Z,30.88
2018-04-13T00:08:50.466Z,34.53
2018-04-13T00:09:56.848Z,36.00
2018-04-13T00:11:03.536Z,40.25
2018-04-13T00:12:11.327Z,38.75
2018-04-13T00:13:17.549Z,36.90
2018-04-13T00:14:24.322Z,36.90
2018-04-13T00:15:35.452Z,35.10
2018-04-13T00:16:41.714Z,34.13
2018-04-13T00:17:50.785Z,34.50
2018-04-13T00:18:57.067Z,34.15
2018-04-13T00:20:03.081Z,33.45
2018-04-13T00:21:09.314Z,34.17
2018-04-13T00:22:15.615Z,35.55
2018-04-13T00:23:21.943Z,38.40
2018-04-13T00:24:28.878Z,38.97
2018-04-13T00:25:35.206Z,36.30
2018-04-13T00:26:41.529Z,35.88
2018-04-13T00:27:47.774Z,33.67
2018-04-13T00:28:54.035Z,35.22
2018-04-13T00:30:00.388Z,33.22
2018-04-13T00:31:07.202Z,32.95
2018-04-13T00:32:13.747Z,31.80
2018-04-13T00:33:20.334Z,33.42
2018-04-13T00:34:26.915Z,30.70
2018-04-13T00:35:33.982Z,32.00
2018-04-13T00:36:41.487Z,32.35
2018-04-13T00:37:47.808Z,31.60
2018-04-13T00:38:53.982Z,32.40
2018-04-13T00:40:01.005Z,31.73
2018-04-13T00:41:07.012Z,30.80
2018-04-13T00:42:13.215Z,28.48
2018-04-13T00:43:20.450Z,28.00
2018-04-13T00:44:26.794Z,29.98
2018-04-13T00:45:33.099Z,31.10
2018-04-13T00:46:39.415Z,31.52
2018-04-13T00:47:46.838Z,31.45
2018-04-13T00:48:53.279Z,32.58
2018-04-13T00:49:59.239Z,32.42
2018-04-13T00:51:07.083Z,32.83
2018-04-13T00:52:13.502Z,31.62
2018-04-13T00:53:29.004Z,30.02
2018-04-13T00:54:35.243Z,33.92
2018-04-13T00:55:41.564Z,35.40
2018-04-13T00:56:47.896Z,34.88
2018-04-13T00:57:54.831Z,34.03
2018-04-13T00:59:01.243Z,32.35
2018-04-13T01:00:07.561Z,30.95
2018-04-13T01:01:13.845Z,32.30
2018-04-13T01:02:20.775Z,29.45
2018-04-13T01:03:27.079Z,31.65
2018-04-13T01:04:33.695Z,33.85
2018-04-13T01:05:39.958Z,34.97
2018-04-13T01:06:46.245Z,36.35
2018-04-13T01:07:52.223Z,40.25
2018-04-13T01:08:58.523Z,42.65
2018-04-13T01:10:03.973Z,42.55
2018-04-13T01:11:10.544Z,42.40
2018-04-13T01:12:16.970Z,43.35
2018-04-13T01:13:27.815Z,44.08
2018-04-13T01:14:33.817Z,36.90
2018-04-13T01:15:40.087Z,36.00
2018-04-13T01:16:46.387Z,39.60
2018-04-13T01:17:52.636Z,41.67
2018-04-13T01:18:58.932Z,39.05
2018-04-13T01:20:05.360Z,41.30
2018-04-13T01:21:11.670Z,41.33
2018-04-13T01:22:17.959Z,45.78
2018-04-13T01:23:24.294Z,44.53
2018-04-13T01:24:30.598Z,43.47
2018-04-13T01:25:36.909Z,43.53
2018-04-13T01:26:43.201Z,43.13
2018-04-13T01:27:50.240Z,42.92
2018-04-13T01:28:56.478Z,40.38
2018-04-13T01:30:02.811Z,39.88
2018-04-13T01:31:09.058Z,40.67
2018-04-13T01:32:14.938Z,39.72
2018-04-13T01:33:21.237Z,39.13
2018-04-13T01:34:27.470Z,37.00
2018-04-13T01:35:33.711Z,37.33
2018-04-13T01:36:40.045Z,38.78
2018-04-13T01:37:50.259Z,36.95
2018-04-13T01:38:57.603Z,38.47
2018-04-13T01:40:03.540Z,37.33
2018-04-13T01:41:10.230Z,37.13
2018-04-13T01:42:16.487Z,35.55
2018-04-13T01:43:22.927Z,33.55
2018-04-13T01:44:30.067Z,33.65
2018-04-13T01:45:36.026Z,35.22
2018-04-13T01:46:42.241Z,33.42
2018-04-13T01:47:49.186Z,32.20
2018-04-13T01:48:55.495Z,31.90
2018-04-13T01:50:01.850Z,32.22
2018-04-13T01:51:15.217Z,30.75
2018-04-13T01:52:21.459Z,30.92
2018-04-13T01:53:27.733Z,29.92
2018-04-13T01:54:34.600Z,29.92
2018-04-13T01:55:40.797Z,29.55
2018-04-13T01:56:47.136Z,27.67
2018-04-13T01:57:53.443Z,27.52
2018-04-13T01:58:59.479Z,24.77
2018-04-13T02:00:04.894Z,23.80
2018-04-13T02:01:10.958Z,24.80
2018-04-13T02:02:17.238Z,23.60
2018-04-13T02:03:23.738Z,24.10
2018-04-13T02:04:30.212Z,24.60
2018-04-13T02:05:36.500Z,22.50
2018-04-13T02:06:43.446Z,23.60
2018-04-13T02:07:50.451Z,27.65
2018-04-13T02:08:58.457Z,25.45
2018-04-13T02:10:05.811Z,25.58
2018-04-13T02:11:12.082Z,26.60
2018-04-13T02:12:18.347Z,25.60
2018-04-13T02:13:24.603Z,24.63
2018-04-13T02:14:30.908Z,24.02
2018-04-13T02:15:37.902Z,23.05
2018-04-13T02:16:44.716Z,24.40
2018-04-13T02:17:50.714Z,24.42
2018-04-13T02:18:56.651Z,25.70
2018-04-13T02:20:02.674Z,27.30
2018-04-13T02:21:10.967Z,25.52
2018-04-13T02:22:17.009Z,25.25
2018-04-13T02:23:23.313Z,25.58
2018-04-13T02:24:37.412Z,23.92
2018-04-13T02:25:44.285Z,24.70
2018-04-13T02:26:54.520Z,22.77
2018-04-13T02:28:00.779Z,27.50
2018-04-13T02:29:07.068Z,27.37
2018-04-13T02:30:13.376Z,26.35
2018-04-13T02:31:19.650Z,28.42
2018-04-13T02:32:25.524Z,29.23
2018-04-13T02:33:31.787Z,26.90
2018-04-13T02:34:38.286Z,26.12
2018-04-13T02:35:45.825Z,27.98
2018-04-13T02:36:52.092Z,27.70
2018-04-13T02:38:00.030Z,28.92
2018-04-13T02:39:06.031Z,26.67
2018-04-13T02:40:14.063Z,25.95
2018-04-13T02:41:20.858Z,25.08
2018-04-13T02:42:27.156Z,24.58
2018-04-13T02:43:34.227Z,25.65
2018-04-13T02:44:40.650Z,21.73
2018-04-13T02:45:46.966Z,22.92
2018-04-13T02:46:54.491Z,24.55
2018-04-13T02:48:00.666Z,23.73
2018-04-13T02:49:06.874Z,26.02
2018-04-13T02:50:14.031Z,25.12
2018-04-13T02:51:20.278Z,25.98
2018-04-13T02:52:26.573Z,27.05
2018-04-13T02:53:33.059Z,27.15
2018-04-13T02:54:40.081Z,26.30
2018-04-13T02:55:48.101Z,26.33
2018-04-13T02:56:54.355Z,23.90
2018-04-13T02:58:01.415Z,23.92
2018-04-13T02:59:07.706Z,26.35
2018-04-13T03:00:14.547Z,26.15
2018-04-13T03:01:21.124Z,25.12
2018-04-13T03:02:28.115Z,24.33
2018-04-13T03:03:34.387Z,23.42
2018-04-13T03:04:40.738Z,23.08
2018-04-13T03:05:47.039Z,23.42
2018-04-13T03:06:53.747Z,22.62
2018-04-13T03:08:00.055Z,21.60
2018-04-13T03:09:07.725Z,21.85
2018-04-13T03:10:14.514Z,22.75
2018-04-13T03:11:23.363Z,24.23
2018-04-13T03:12:30.697Z,21.83
2018-04-13T03:13:36.647Z,21.17
2018-04-13T03:14:44.224Z,22.02
2018-04-13T03:15:50.948Z,20.67
2018-04-13T03:16:57.147Z,21.90
2018-04-13T03:18:04.890Z,20.70
2018-04-13T03:19:11.929Z,20.00
2018-04-13T03:20:18.469Z,19.58
2018-04-13T03:21:24.711Z,18.58
2018-04-13T03:22:31.017Z,18.40
2018-04-13T03:23:38.711Z,19.50
2018-04-13T03:24:45.430Z,19.60
2018-04-13T03:25:51.710Z,17.92
2018-04-13T03:27:00.452Z,17.45
2018-04-13T03:28:07.246Z,18.25
2018-04-13T03:29:13.474Z,17.73
2018-04-13T03:30:19.683Z,17.23
2018-04-13T03:31:27.311Z,17.60
2018-04-13T03:32:34.364Z,17.23
2018-04-13T03:33:41.457Z,18.00
2018-04-13T03:34:47.811Z,17.20
2018-04-13T03:35:54.394Z,19.02
2018-04-13T03:37:00.777Z,15.52
2018-04-13T03:38:07.821Z,17.30
2018-04-13T03:39:14.871Z,16.77
2018-04-13T03:40:21.103Z,19.73
2018-04-13T03:41:29.097Z,19.05
2018-04-13T03:42:37.011Z,19.23
2018-04-13T03:43:43.196Z,17.87
2018-04-13T03:44:49.271Z,18.17
2018-04-13T03:45:55.544Z,18.92
2018-04-13T03:47:02.407Z,17.05
2018-04-13T03:48:09.704Z,16.27
2018-04-13T03:49:15.915Z,16.20
2018-04-13T03:50:23.590Z,15.90
2018-04-13T03:51:29.856Z,16.80
2018-04-13T03:52:36.535Z,17.67
2018-04-13T03:53:43.155Z,17.12
2018-04-13T03:54:49.418Z,18.65
2018-04-13T03:55:56.278Z,15.82
2018-04-13T03:57:02.679Z,15.25
2018-04-13T03:58:10.938Z,14.98
2018-04-13T03:59:17.140Z,16.27
2018-04-13T04:00:24.298Z,15.68
2018-04-13T04:01:31.175Z,12.65
2018-04-13T04:02:37.513Z,13.20
2018-04-13T04:03:43.478Z,14.18
2018-04-13T04:04:49.723Z,14.00
2018-04-13T04:05:57.127Z,12.93
2018-04-13T04:07:03.363Z,14.43
2018-04-13T04:08:09.588Z,12.50
2018-04-13T04:09:15.917Z,11.93
2018-04-13T04:10:22.229Z,11.65
2018-04-13T04:11:28.549Z,12.25
2018-04-13T04:12:34.372Z,12.52
2018-04-13T04:13:42.159Z,12.40
2018-04-13T04:14:50.195Z,11.88
2018-04-13T04:15:56.484Z,12.32
2018-04-13T04:17:02.790Z,11.77
2018-04-13T04:18:10.545Z,12.10
2018-04-13T04:21:10.235Z,12.30
2018-04-13T04:22:33.299Z,11.20
2018-04-13T04:25:56.566Z,11.05
2018-04-13T04:27:02.583Z,11.35
2018-04-13T04:28:08.929Z,10.90
2018-04-13T04:29:17.932Z,11.30
2018-04-13T04:30:28.479Z,10.90
2018-04-13T04:31:35.377Z,10.15
2018-04-13T04:32:41.838Z,10.60
2018-04-13T04:33:48.796Z,10.02
2018-04-13T04:34:55.058Z,10.93
2018-04-13T04:36:01.388Z,13.25
2018-04-13T04:37:07.853Z,14.93
2018-04-13T04:38:14.299Z,15.18
2018-04-13T04:39:26.784Z,14.73
2018-04-13T04:40:33.011Z,13.60
2018-04-13T04:41:39.283Z,11.93
2018-04-13T04:42:45.647Z,11.15
2018-04-13T04:43:52.624Z,13.25
2018-04-13T04:44:58.949Z,11.95
2018-04-13T04:46:05.296Z,12.93
2018-04-13T04:47:11.655Z,11.85
2018-04-13T04:48:18.359Z,12.75
2018-04-13T04:49:24.767Z,12.55
2018-04-13T04:50:31.742Z,13.43
2018-04-13T04:51:38.011Z,13.65
2018-04-13T04:52:44.976Z,13.90
2018-04-13T04:53:51.402Z,13.38
2018-04-13T04:54:57.770Z,13.35
2018-04-13T04:56:04.097Z,14.00
2018-04-13T04:57:10.412Z,13.43
2018-04-13T04:58:16.567Z,13.02
2018-04-13T04:59:23.449Z,13.20
2018-04-13T05:00:34.110Z,13.10
2018-04-13T05:01:40.339Z,11.70
2018-04-13T05:02:47.239Z,10.48
2018-04-13T05:03:54.371Z,12.20
2018-04-13T05:05:00.640Z,11.10
2018-04-13T05:06:06.950Z,11.98
2018-04-13T05:07:13.285Z,11.82
2018-04-13T05:08:19.274Z,13.02
2018-04-13T05:09:25.567Z,13.23
2018-04-13T05:10:32.089Z,13.10
2018-04-13T05:11:39.067Z,12.18
2018-04-13T05:12:45.327Z,11.90
2018-04-13T05:13:51.664Z,12.73
2018-04-13T05:14:58.611Z,13.07
2018-04-13T05:16:07.481Z,14.00
2018-04-13T05:17:13.461Z,13.27
2018-04-13T05:18:19.750Z,13.75
2018-04-13T05:19:26.092Z,13.52
2018-04-13T05:20:32.359Z,12.07
2018-04-13T05:21:38.680Z,13.45
2018-04-13T05:22:45.728Z,11.35
2018-04-13T05:23:52.556Z,12.55
2018-04-13T05:24:58.828Z,13.55
2018-04-13T05:26:05.165Z,13.32
2018-04-13T05:27:11.481Z,11.50
2018-04-13T05:28:17.563Z,11.63
2018-04-13T05:29:23.932Z,12.23
2018-04-13T05:30:32.129Z,12.13
2018-04-13T05:31:41.643Z,10.95
2018-04-13T05:32:48.805Z,11.88
2018-04-13T05:33:55.510Z,11.65
2018-04-13T05:35:02.416Z,10.90
2018-04-13T05:36:08.709Z,9.73
2018-04-13T05:37:14.940Z,9.57
2018-04-13T05:38:21.271Z,10.25
2018-04-13T05:39:27.603Z,10.45
2018-04-13T05:40:33.843Z,9.75
2018-04-13T05:41:40.098Z,10.50
2018-04-13T05:42:56.850Z,9.60
2018-04-13T05:44:03.623Z,9.60
2018-04-13T05:45:09.965Z,11.02
2018-04-13T05:46:16.282Z,10.68
2018-04-13T05:47:22.566Z,9.40
2018-04-13T05:48:28.799Z,10.10
2018-04-13T05:49:35.689Z,10.52
2018-04-13T05:50:41.928Z,9.80
2018-04-13T05:51:48.752Z,10.68
2018-04-13T05:52:55.083Z,10.52
2018-04-13T05:54:01.690Z,10.95
2018-04-13T05:55:07.800Z,11.48
2018-04-13T05:56:14.006Z,10.88
2018-04-13T05:57:20.322Z,10.32
2018-04-13T05:58:26.621Z,10.48
2018-04-13T05:59:32.990Z,9.75
2018-04-13T06:00:39.347Z,10.55
2018-04-13T06:01:45.684Z,8.93
2018-04-13T06:02:56.341Z,10.02
2018-04-13T06:04:02.535Z,11.68
2018-04-13T06:05:09.046Z,10.63
2018-04-13T06:06:15.292Z,11.25
2018-04-13T06:07:21.695Z,12.00
2018-04-13T06:08:28.042Z,10.75
2018-04-13T06:09:34.340Z,9.90
2018-04-13T06:10:40.671Z,9.15
2018-04-13T06:11:46.974Z,9.60
2018-04-13T06:12:53.466Z,10.18
2018-04-13T06:14:01.713Z,9.38
2018-04-13T06:15:08.599Z,11.00
2018-04-13T06:16:15.004Z,10.85
2018-04-13T06:17:21.416Z,10.15
2018-04-13T06:18:29.729Z,11.02
2018-04-13T06:19:35.922Z,11.35
2018-04-13T06:20:42.183Z,12.05
2018-04-13T06:21:54.422Z,12.35
2018-04-13T06:23:00.762Z,13.50
2018-04-13T06:24:06.719Z,13.45
2018-04-13T06:25:12.940Z,13.35
2018-04-13T06:26:19.311Z,12.40
2018-04-13T06:27:25.571Z,11.82
2018-04-13T06:28:31.867Z,11.32
2018-04-13T06:29:38.131Z,10.85
2018-04-13T06:30:44.427Z,11.55
2018-04-13T06:31:50.475Z,10.50
2018-04-13T06:32:56.781Z,10.18
2018-04-13T06:34:04.386Z,9.93
2018-04-13T06:35:10.776Z,10.07
2018-04-13T06:36:16.859Z,9.70
2018-04-13T06:37:23.099Z,11.23
2018-04-13T06:38:29.404Z,11.73
2018-04-13T06:39:35.852Z,11.20
2018-04-13T06:40:42.122Z,9.98
2018-04-13T06:41:48.673Z,9.63
2018-04-13T06:42:54.980Z,10.65
2018-04-13T06:44:02.101Z,11.48
2018-04-13T06:45:08.427Z,9.70
2018-04-13T06:46:14.750Z,10.07
2018-04-13T06:47:21.026Z,9.55
2018-04-13T06:48:27.331Z,9.50
2018-04-13T06:49:34.633Z,8.95
2018-04-13T06:50:41.861Z,9.20
2018-04-13T06:51:48.356Z,9.00
2018-04-13T06:52:55.504Z,10.00
2018-04-13T06:54:01.868Z,9.80
2018-04-13T06:55:08.171Z,9.20
2018-04-13T06:56:14.490Z,8.38
2018-04-13T06:57:20.896Z,10.07
2018-04-13T06:58:27.116Z,9.27
2018-04-13T06:59:33.198Z,10.38
2018-04-13T07:00:39.545Z,9.52
2018-04-13T07:01:46.071Z,10.90
2018-04-13T07:02:52.149Z,10.32
2018-04-13T07:03:58.658Z,10.13
2018-04-13T07:05:05.550Z,11.15
2018-04-13T07:06:13.319Z,10.50
2018-04-13T07:07:20.739Z,9.18
2018-04-13T07:08:27.403Z,12.20
2018-04-13T07:09:33.732Z,10.02
2018-04-13T07:10:40.015Z,10.63
2018-04-13T07:11:46.232Z,9.05
2018-04-13T07:12:52.566Z,9.43
2018-04-13T07:13:58.916Z,10.55
2018-04-13T07:15:05.273Z,9.57
2018-04-13T07:16:11.786Z,9.65
2018-04-13T07:17:18.133Z,10.00
2018-04-13T07:18:24.464Z,10.43
2018-04-13T07:19:32.516Z,9.27
2018-04-13T07:20:40.011Z,10.75
2018-04-13T07:21:48.435Z,10.77
2018-04-13T07:22:55.792Z,11.20
2018-04-13T07:24:02.385Z,11.10
2018-04-13T07:25:09.142Z,10.13
2018-04-13T07:26:16.614Z,10.07
2018-04-13T07:27:23.284Z,10.57
2018-04-13T07:28:29.840Z,11.12
2018-04-13T07:29:36.741Z,11.07
2018-04-13T07:30:44.130Z,10.43
2018-04-13T07:31:51.144Z,10.65
2018-04-13T07:32:57.675Z,10.80
2018-04-13T07:34:04.713Z,10.25
2018-04-13T07:35:12.266Z,10.13
2018-04-13T07:36:21.575Z,9.38
2018-04-13T07:37:29.127Z,9.90
2018-04-13T07:38:36.327Z,10.32
2018-04-13T07:39:43.533Z,9.55
2018-04-13T07:40:51.119Z,11.00
2018-04-13T07:41:57.867Z,10.25
2018-04-13T07:43:05.446Z,11.10
2018-04-13T07:44:12.307Z,10.23
2018-04-13T07:45:19.078Z,9.20
2018-04-13T07:46:26.107Z,9.35
2018-04-13T07:47:33.534Z,10.50
2018-04-13T07:48:40.202Z,9.95
2018-04-13T07:49:47.509Z,9.65
2018-04-13T07:50:54.356Z,11.20
2018-04-13T07:52:01.045Z,10.20
2018-04-13T07:53:08.380Z,10.90
2018-04-13T07:54:16.733Z,10.52
2018-04-13T07:55:24.317Z,12.32
2018-04-13T07:56:30.963Z,11.65
2018-04-13T07:57:37.374Z,11.95
2018-04-13T07:58:44.824Z,11.70
2018-04-13T07:59:51.666Z,10.65
2018-04-13T08:00:57.836Z,12.45
2018-04-13T08:02:04.083Z,11.02
2018-04-13T08:03:10.397Z,11.05
2018-04-13T08:04:16.697Z,11.18
2018-04-13T08:05:23.014Z,11.55
2018-04-13T08:06:29.959Z,10.48
2018-04-13T08:07:37.280Z,11.15
2018-04-13T08:08:43.476Z,10.98
2018-04-13T08:09:49.791Z,11.63
2018-04-13T08:10:56.072Z,11.27
2018-04-13T08:12:02.369Z,12.40
2018-04-13T08:13:08.742Z,12.07
2018-04-13T08:14:15.042Z,12.93
2018-04-13T08:15:21.344Z,11.43
2018-04-13T08:16:27.386Z,12.75
2018-04-13T08:17:33.751Z,12.70
2018-04-13T08:18:40.067Z,12.00
2018-04-13T08:19:46.385Z,13.02
2018-04-13T08:20:52.666Z,11.15
2018-04-13T08:21:59.279Z,11.38
2018-04-13T08:23:06.318Z,13.00
2018-04-13T08:24:14.332Z,12.93
2018-04-13T08:25:20.868Z,11.10
2018-04-13T08:26:27.106Z,11.80
2018-04-13T08:27:33.158Z,13.10
2018-04-13T08:28:39.965Z,13.15
2018-04-13T08:29:47.198Z,12.25
2018-04-13T08:30:53.699Z,12.65
2018-04-13T08:32:00.035Z,12.57
2018-04-13T08:33:06.527Z,12.32
2018-04-13T08:34:12.845Z,11.63
2018-04-13T08:35:19.403Z,13.52
2018-04-13T08:36:25.647Z,12.57
2018-04-13T08:37:31.972Z,14.50
2018-04-13T08:38:39.389Z,14.23
2018-04-13T08:39:47.843Z,12.40
2018-04-13T08:40:54.078Z,13.27
2018-04-13T08:42:00.384Z,12.75
2018-04-13T08:43:06.435Z,12.57
2018-04-13T08:44:13.709Z,12.55
2018-04-13T08:45:19.977Z,13.07
2018-04-13T08:46:26.254Z,11.52
2018-04-13T08:47:32.557Z,11.80
2018-04-13T08:48:39.629Z,12.63
2018-04-13T08:49:46.093Z,11.90
2018-04-13T08:50:54.890Z,11.88
2018-04-13T08:52:06.560Z,13.23
2018-04-13T08:53:13.010Z,12.00
2018-04-13T08:54:20.506Z,13.23
2018-04-13T08:55:26.727Z,12.52
2018-04-13T08:56:33.021Z,13.65
2018-04-13T08:57:39.317Z,12.37
2018-04-13T08:58:45.700Z,13.27
2018-04-13T08:59:52.002Z,12.95
2018-04-13T09:00:58.267Z,14.38
2018-04-13T09:02:04.778Z,12.73
2018-04-13T09:03:11.179Z,12.85
2018-04-13T09:04:17.470Z,13.05
2018-04-13T09:05:24.431Z,11.60
2018-04-13T09:06:31.797Z,11.35
2018-04-13T09:07:39.131Z,12.13
2018-04-13T09:08:46.076Z,11.98
2018-04-13T09:09:57.366Z,12.88
2018-04-13T09:11:04.717Z,12.20
2018-04-13T09:12:12.050Z,15.60
2018-04-13T09:13:18.963Z,14.45
2018-04-13T09:14:24.934Z,12.60
2018-04-13T09:15:30.947Z,13.30
2018-04-13T09:16:36.953Z,14.05
2018-04-13T09:17:43.803Z,13.38
2018-04-13T09:18:50.767Z,14.23
2018-04-13T09:19:56.995Z,13.75
2018-04-13T09:21:03.317Z,14.98
2018-04-13T09:22:09.612Z,13.05
2018-04-13T09:23:15.923Z,12.65
2018-04-13T09:24:22.240Z,13.20
2018-04-13T09:25:30.208Z,13.20
2018-04-13T09:26:36.480Z,13.65
2018-04-13T09:27:43.226Z,11.82
2018-04-13T09:28:49.532Z,11.77
2018-04-13T09:29:55.747Z,12.77
2018-04-13T09:31:01.826Z,12.50
2018-04-13T09:32:08.195Z,12.70
2018-04-13T09:33:14.470Z,12.85
2018-04-13T09:34:20.839Z,13.25
2018-04-13T09:35:27.089Z,13.73
2018-04-13T09:36:33.431Z,12.57
2018-04-13T09:37:39.730Z,12.45
2018-04-13T09:38:46.234Z,13.15
2018-04-13T09:39:52.459Z,12.07
2018-04-13T09:40:59.126Z,11.02
2018-04-13T09:42:05.458Z,12.48
2018-04-13T09:43:11.702Z,12.93
2018-04-13T09:44:18.125Z,14.90
2018-04-13T09:45:24.482Z,13.00
2018-04-13T09:46:30.755Z,14.27
2018-04-13T09:47:41.164Z,15.10
2018-04-13T09:48:47.495Z,12.25
2018-04-13T09:49:53.753Z,12.60
2018-04-13T09:50:59.967Z,13.18
2018-04-13T09:52:06.278Z,12.65
2018-04-13T09:53:12.589Z,12.95
2018-04-13T09:54:18.905Z,12.70
2018-04-13T09:55:25.242Z,12.43
2018-04-13T09:56:31.733Z,11.35
2018-04-13T09:57:38.165Z,11.90
2018-04-13T09:58:44.463Z,11.93
2018-04-13T09:59:51.427Z,11.02
2018-04-13T10:01:00.281Z,11.88
2018-04-13T10:02:06.330Z,10.73
2018-04-13T10:03:18.150Z,11.10
2018-04-13T10:04:24.181Z,11.02
2018-04-13T10:05:30.510Z,11.85
2018-04-13T10:06:36.815Z,10.43
2018-04-13T10:07:43.156Z,10.70
2018-04-13T10:08:49.448Z,11.10
2018-04-13T10:09:55.684Z,10.75
2018-04-13T10:11:01.971Z,11.77
2018-04-13T10:12:09.257Z,11.18
2018-04-13T10:13:15.751Z,13.02
2018-04-13T10:14:22.171Z,11.98
2018-04-13T10:15:28.355Z,10.93
2018-04-13T10:16:34.695Z,11.43
2018-04-13T10:17:40.991Z,10.45
2018-04-13T10:18:47.267Z,10.82
2018-04-13T10:19:53.498Z,11.40
2018-04-13T10:20:59.778Z,10.60
2018-04-13T10:22:06.418Z,12.05
2018-04-13T10:23:13.980Z,10.70
2018-04-13T10:24:19.971Z,11.38
2018-04-13T10:25:26.286Z,11.70
2018-04-13T10:26:32.641Z,11.48
2018-04-13T10:27:39.553Z,12.15
2018-04-13T10:28:45.824Z,10.98
2018-04-13T10:29:52.026Z,12.95
2018-04-13T10:30:58.243Z,11.68
2018-04-13T10:32:10.598Z,11.85
2018-04-13T10:33:16.815Z,11.48
2018-04-13T10:34:23.750Z,12.60
2018-04-13T10:35:30.174Z,14.73
2018-04-13T10:36:36.456Z,14.40
2018-04-13T10:37:42.675Z,12.15
2018-04-13T10:38:49.010Z,13.30
2018-04-13T10:39:58.134Z,13.60
2018-04-13T10:41:04.391Z,13.62
2018-04-13T10:42:10.677Z,14.55
2018-04-13T10:43:16.767Z,15.02
2018-04-13T10:44:22.979Z,15.00
2018-04-13T10:45:29.190Z,14.65
2018-04-13T10:46:35.412Z,16.83
2018-04-13T10:47:41.715Z,16.98
2018-04-13T10:48:48.668Z,18.05
2018-04-13T10:49:54.970Z,17.55
2018-04-13T10:51:01.283Z,17.42
2018-04-13T10:52:07.591Z,18.25
2018-04-13T10:53:13.932Z,17.58
2018-04-13T10:54:20.230Z,17.10
2018-04-13T10:55:28.080Z,18.42
2018-04-13T10:56:34.898Z,17.60
2018-04-13T10:57:41.972Z,17.23
2018-04-13T10:58:48.274Z,16.70
2018-04-13T10:59:54.683Z,16.25
2018-04-13T11:01:00.943Z,17.30
2018-04-13T11:02:07.188Z,15.82
2018-04-13T11:03:13.787Z,15.80
2018-04-13T11:04:20.103Z,15.77
2018-04-13T11:05:26.403Z,17.48
2018-04-13T11:06:32.920Z,15.20
2018-04-13T11:07:39.233Z,15.40
2018-04-13T11:08:45.576Z,15.45
2018-04-13T11:09:51.845Z,14.15
2018-04-13T11:10:58.175Z,14.35
2018-04-13T11:12:05.023Z,12.32
2018-04-13T11:13:11.496Z,13.90
2018-04-13T11:14:17.747Z,13.65
2018-04-13T11:15:24.032Z,12.95
2018-04-13T11:16:30.475Z,14.32
2018-04-13T11:17:42.316Z,14.90
2018-04-13T11:18:48.539Z,14.60
2018-04-13T11:19:54.829Z,12.95
2018-04-13T11:21:01.578Z,13.27
2018-04-13T11:22:07.905Z,13.10
2018-04-13T11:23:14.157Z,14.18
2018-04-13T11:24:20.590Z,13.95
2018-04-13T11:25:27.018Z,13.95
2018-04-13T11:26:33.322Z,12.65
2018-04-13T11:27:39.699Z,12.30
2018-04-13T11:28:45.930Z,12.82
2018-04-13T11:29:52.249Z,13.62
2018-04-13T11:30:58.744Z,12.20
2018-04-13T11:32:05.052Z,12.35
2018-04-13T11:33:11.412Z,13.40
2018-04-13T11:34:17.887Z,13.85
2018-04-13T11:35:24.322Z,12.25
2018-04-13T11:36:30.635Z,13.43
2018-04-13T11:37:37.022Z,12.75
2018-04-13T11:38:43.388Z,12.30
2018-04-13T11:39:50.011Z,13.10
2018-04-13T11:40:56.291Z,13.38
2018-04-13T11:42:02.614Z,12.18
2018-04-13T11:43:08.975Z,12.30
2018-04-13T11:44:20.343Z,12.23
2018-04-13T11:45:26.652Z,13.55
2018-04-13T11:46:33.945Z,14.50
2018-04-13T11:47:40.159Z,13.65
2018-04-13T11:48:46.474Z,13.65
2018-04-13T11:49:52.690Z,12.52
2018-04-13T11:50:59.025Z,13.55
2018-04-13T11:52:05.345Z,13.00
2018-04-13T11:53:11.647Z,13.55
2018-04-13T11:54:17.583Z,12.85
2018-04-13T11:55:23.871Z,13.30
2018-04-13T11:56:30.164Z,13.98
2018-04-13T11:57:36.527Z,14.30
2018-04-13T11:58:43.442Z,14.13
2018-04-13T11:59:52.799Z,14.68
2018-04-13T12:00:59.122Z,14.20
2018-04-13T12:02:05.428Z,12.18
2018-04-13T12:03:11.928Z,12.52
2018-04-13T12:04:18.938Z,13.02
2018-04-13T12:05:26.133Z,13.62
2018-04-13T12:06:32.519Z,12.05
2018-04-13T12:07:38.817Z,13.88
2018-04-13T12:08:45.492Z,13.60
2018-04-13T12:09:51.991Z,12.57
2018-04-13T12:10:58.304Z,13.57
2018-04-13T12:12:04.667Z,12.90
2018-04-13T12:13:10.979Z,11.85
2018-04-13T12:14:17.432Z,13.75
2018-04-13T12:15:23.711Z,11.95
2018-04-13T12:16:30.148Z,13.25
2018-04-13T12:17:36.449Z,11.73
2018-04-13T12:18:42.870Z,12.52
2018-04-13T12:19:49.168Z,13.90
2018-04-13T12:20:56.162Z,12.77
2018-04-13T12:22:02.516Z,11.80
2018-04-13T12:23:08.973Z,11.60
2018-04-13T12:24:15.240Z,10.98
2018-04-13T12:25:21.327Z,10.90
2018-04-13T12:26:27.747Z,11.57
2018-04-13T12:27:34.290Z,10.52
2018-04-13T12:28:40.624Z,10.05
2018-04-13T12:29:47.324Z,9.35
2018-04-13T12:30:53.622Z,9.77
2018-04-13T12:31:59.835Z,9.65
2018-04-13T12:33:06.280Z,9.57
2018-04-13T12:34:13.242Z,9.25
2018-04-13T12:35:19.738Z,10.38
2018-04-13T12:36:26.164Z,10.30
2018-04-13T12:37:36.714Z,9.85
2018-04-13T12:38:43.407Z,9.15
2018-04-13T12:39:49.803Z,8.50
2018-04-13T12:40:56.159Z,9.23
2018-04-13T12:42:02.511Z,9.70
2018-04-13T12:43:08.915Z,10.70
2018-04-13T12:44:15.368Z,9.82
2018-04-13T12:45:21.704Z,10.70
2018-04-13T12:46:28.040Z,10.88
2018-04-13T12:47:34.441Z,11.40
2018-04-13T12:48:48.509Z,10.27
2018-04-13T12:49:54.969Z,9.77
2018-04-13T12:51:00.995Z,10.20
2018-04-13T12:52:07.422Z,10.20
2018-04-13T12:53:13.764Z,10.25
2018-04-13T12:54:19.911Z,9.80
2018-04-13T12:55:26.466Z,9.63
2018-04-13T12:56:33.116Z,10.82
2018-04-13T12:57:39.457Z,10.23
2018-04-13T12:58:45.750Z,11.60
2018-04-13T12:59:52.055Z,10.75
2018-04-13T13:00:58.462Z,11.80
2018-04-13T13:02:07.415Z,11.57
2018-04-13T13:03:16.984Z,10.55
2018-04-13T13:04:24.942Z,10.15
2018-04-13T13:05:31.317Z,11.38
2018-04-13T13:06:37.610Z,11.15
2018-04-13T13:07:44.657Z,11.40
2018-04-13T13:08:51.086Z,12.02
2018-04-13T13:09:57.665Z,13.02
2018-04-13T13:11:03.971Z,11.63
2018-04-13T13:12:10.428Z,11.40
2018-04-13T13:13:16.718Z,10.77
2018-04-13T13:14:23.099Z,10.98
2018-04-13T13:15:29.430Z,11.93
2018-04-13T13:16:36.496Z,11.10
2018-04-13T13:17:42.576Z,10.43
2018-04-13T13:18:49.899Z,10.73
2018-04-13T13:19:58.530Z,10.07
2018-04-13T13:21:04.632Z,9.90
2018-04-13T13:22:10.800Z,9.48
2018-04-13T13:23:19.407Z,9.15
2018-04-13T13:24:25.750Z,9.57
2018-04-13T13:25:32.063Z,9.55
2018-04-13T13:26:38.399Z,9.18
2018-04-13T13:27:44.708Z,9.55
2018-04-13T13:28:51.005Z,9.07
2018-04-13T13:29:57.322Z,10.15
2018-04-13T13:31:03.611Z,8.70
2018-04-13T13:32:09.940Z,9.07
2018-04-13T13:33:16.331Z,9.23
2018-04-13T13:34:23.141Z,9.68
2018-04-13T13:35:30.691Z,10.57
2018-04-13T13:36:37.022Z,10.50
2018-04-13T13:37:43.405Z,9.40
2018-04-13T13:38:49.778Z,9.98
2018-04-13T13:39:56.070Z,11.00
2018-04-13T13:41:02.895Z,11.32
2018-04-13T13:42:09.717Z,9.32
2018-04-13T13:43:16.151Z,9.43
2018-04-13T13:44:22.564Z,10.10
2018-04-13T13:45:29.598Z,9.73
2018-04-13T13:46:35.704Z,9.95
2018-04-13T13:47:42.195Z,10.77
2018-04-13T13:48:48.651Z,9.80
2018-04-13T13:49:54.911Z,10.25
2018-04-13T13:51:01.330Z,9.25
2018-04-13T13:52:07.644Z,10.15
2018-04-13T13:53:14.089Z,9.90
2018-04-13T13:54:20.558Z,9.30
2018-04-13T13:55:26.886Z,9.98
2018-04-13T13:56:35.872Z,9.10
2018-04-13T13:57:42.113Z,9.63
2018-04-13T13:58:48.400Z,9.38
2018-04-13T13:59:54.678Z,9.45
2018-04-13T14:01:01.055Z,8.77
2018-04-13T14:02:07.283Z,9.52
2018-04-13T14:03:13.637Z,10.45
2018-04-13T14:04:20.319Z,8.30
2018-04-13T14:05:26.559Z,10.27
2018-04-13T14:06:37.449Z,9.57
2018-04-13T14:07:43.790Z,9.40
2018-04-13T14:08:50.256Z,9.65
2018-04-13T14:09:56.507Z,9.48
2018-04-13T14:11:02.857Z,9.95
2018-04-13T14:12:09.766Z,8.82
2018-04-13T14:13:16.084Z,10.30
2018-04-13T14:14:22.502Z,8.23
2018-04-13T14:15:28.789Z,8.35
2018-04-13T14:16:35.131Z,7.30
2018-04-13T14:17:41.526Z,7.10
2018-04-13T14:18:47.848Z,7.00
2018-04-13T14:19:54.275Z,7.37
2018-04-13T14:21:00.575Z,6.85
2018-04-13T14:22:06.846Z,7.28
2018-04-13T14:23:13.255Z,7.10
2018-04-13T14:24:19.630Z,6.78
2018-04-13T14:25:26.023Z,7.20
2018-04-13T14:26:32.931Z,7.57
2018-04-13T14:27:39.343Z,7.10
2018-04-13T14:28:45.679Z,7.70